createdAt,value
2022-11-03T00:00:39.971Z,73.26
2022-11-03T00:03:07.667Z,73.43
2022-11-03T00:05:52.675Z,73.99
2022-11-03T00:08:20.043Z,73.15
2022-11-03T00:10:47.435Z,73.12
2022-11-03T00:13:15.085Z,73.66
2022-11-03T00:15:50.255Z,73.69
2022-11-03T00:18:17.631Z,73.45
2022-11-03T00:20:45.078Z,73.50
2022-11-03T00:23:12.435Z,73.35
2022-11-03T00:25:39.808Z,73.05
2022-11-03T00:28:07.158Z,73.22
2022-11-03T00:30:34.527Z,73.67
2022-11-03T00:33:03.314Z,73.13
2022-11-03T00:35:30.927Z,73.35
2022-11-03T00:37:58.287Z,73.96
2022-11-03T00:40:27.847Z,73.18
2022-11-03T00:42:55.280Z,73.97
2022-11-03T00:45:22.628Z,73.88
2022-11-03T00:48:04.088Z,74.38
2022-11-03T00:50:34.322Z,74.17
2022-11-03T00:53:01.687Z,74.49
2022-11-03T00:55:29.268Z,74.88
2022-11-03T00:57:56.909Z,74.90
2022-11-03T01:00:24.508Z,74.66
2022-11-03T01:02:51.903Z,75.04
2022-11-03T01:05:33.296Z,75.66
2022-11-03T01:08:02.833Z,75.79
2022-11-03T01:10:30.184Z,75.51
2022-11-03T01:12:57.607Z,75.52
2022-11-03T01:15:25.072Z,75.64
2022-11-03T01:17:52.452Z,75.60
2022-11-03T01:20:19.872Z,75.61
2022-11-03T01:22:47.279Z,76.21
2022-11-03T01:25:16.155Z,75.84
2022-11-03T01:27:43.755Z,76.10
2022-11-03T01:30:12.314Z,76.59
2022-11-03T01:32:39.721Z,76.33
2022-11-03T01:35:07.864Z,76.27
2022-11-03T01:37:35.303Z,76.79
2022-11-03T01:40:02.714Z,76.88
2022-11-03T01:42:31.457Z,76.90
2022-11-03T01:44:58.937Z,77.44
2022-11-03T01:47:28.646Z,76.80
2022-11-03T01:50:00.352Z,76.47
2022-11-03T01:52:33.868Z,77.23
2022-11-03T01:55:03.516Z,78.18
2022-11-03T01:57:35.781Z,77.60
2022-11-03T02:00:04.776Z,77.88
2022-11-03T02:02:39.940Z,78.22
2022-11-03T02:05:08.692Z,78.48
2022-11-03T02:07:38.227Z,78.94
2022-11-03T02:10:09.923Z,79.62
2022-11-03T02:12:38.926Z,79.19
2022-11-03T02:15:08.628Z,79.46
2022-11-03T02:17:36.912Z,79.55
2022-11-03T02:20:06.880Z,79.16
2022-11-03T02:22:45.708Z,79.56
2022-11-03T02:25:17.900Z,80.11
2022-11-03T02:27:46.910Z,79.32
2022-11-03T02:30:14.429Z,80.07
2022-11-03T02:32:49.671Z,80.06
2022-11-03T02:35:22.925Z,79.87
2022-11-03T02:37:53.027Z,79.50
2022-11-03T02:40:24.801Z,80.24
2022-11-03T02:42:54.352Z,80.24
2022-11-03T02:45:23.667Z,79.54
2022-11-03T02:47:52.772Z,79.72
2022-11-03T02:50:22.215Z,80.18
2022-11-03T02:52:52.431Z,80.46
2022-11-03T02:55:26.888Z,80.61
2022-11-03T02:57:59.255Z,80.36
2022-11-03T03:00:26.976Z,80.59
2022-11-03T03:03:00.195Z,80.56
2022-11-03T03:05:31.014Z,81.29
2022-11-03T03:08:02.877Z,80.61
2022-11-03T03:10:32.525Z,80.93
2022-11-03T03:13:02.907Z,80.56
2022-11-03T03:15:39.408Z,80.70
2022-11-03T03:18:13.319Z,80.58
2022-11-03T03:20:43.199Z,81.06
2022-11-03T03:23:14.504Z,80.84
2022-11-03T03:25:47.869Z,80.86
2022-11-03T03:28:19.475Z,80.66
2022-11-03T03:30:48.658Z,80.57
2022-11-03T03:33:17.098Z,81.40
2022-11-03T03:35:49.173Z,81.57
2022-11-03T03:38:20.036Z,81.22
2022-11-03T03:40:51.168Z,81.14
2022-11-03T03:43:20.786Z,81.16
2022-11-03T03:45:49.979Z,81.59
2022-11-03T03:48:17.680Z,81.59
2022-11-03T03:50:45.860Z,81.80
2022-11-03T03:53:13.958Z,81.87
2022-11-03T03:55:43.328Z,81.82
2022-11-03T03:58:13.336Z,81.86
2022-11-03T04:00:42.793Z,81.90
2022-11-03T04:03:16.727Z,81.97
2022-11-03T04:05:44.419Z,81.83
2022-11-03T04:08:12.358Z,82.52
2022-11-03T04:10:39.968Z,82.21
2022-11-03T04:13:25.319Z,82.60
2022-11-03T04:16:11.895Z,82.50
2022-11-03T04:18:57.108Z,83.01
2022-11-03T04:21:42.148Z,83.13
2022-11-03T04:24:09.588Z,83.50
2022-11-03T04:26:37.012Z,83.25
2022-11-03T04:29:07.161Z,83.84
2022-11-03T04:31:37.053Z,83.35
2022-11-03T04:34:05.423Z,83.43
2022-11-03T04:36:33.155Z,83.89
2022-11-03T04:39:00.512Z,83.79
2022-11-03T04:41:30.552Z,84.06
2022-11-03T04:43:58.107Z,83.77
2022-11-03T04:46:26.906Z,84.18
2022-11-03T04:48:58.042Z,84.25
2022-11-03T04:51:26.285Z,84.38
2022-11-03T04:53:55.472Z,84.56
2022-11-03T04:56:24.399Z,85.01
2022-11-03T04:58:52.748Z,85.40
2022-11-03T05:01:24.221Z,85.22
2022-11-03T05:03:54.612Z,85.63
2022-11-03T05:06:25.301Z,85.54
2022-11-03T05:08:54.537Z,85.36
2022-11-03T05:11:23.875Z,85.46
2022-11-03T05:13:52.092Z,85.18
2022-11-03T05:16:19.731Z,85.83
2022-11-03T05:18:49.797Z,85.52
2022-11-03T05:21:19.425Z,85.48
2022-11-03T05:23:50.045Z,85.54
2022-11-03T05:26:19.799Z,85.52
2022-11-03T05:28:50.245Z,85.96
2022-11-03T05:31:23.280Z,86.22
2022-11-03T05:33:52.457Z,85.98
2022-11-03T05:36:21.681Z,86.29
2022-11-03T05:38:51.168Z,85.98
2022-11-03T05:41:23.483Z,86.68
2022-11-03T05:43:55.763Z,86.51
2022-11-03T05:46:23.696Z,86.49
2022-11-03T05:48:51.252Z,86.66
2022-11-03T05:51:21.548Z,87.07
2022-11-03T05:53:51.757Z,87.44
2022-11-03T05:56:21.480Z,87.34
2022-11-03T05:58:50.115Z,87.41
2022-11-03T06:01:21.076Z,87.05
2022-11-03T06:03:48.968Z,87.43
2022-11-03T06:06:20.004Z,87.22
2022-11-03T06:08:47.774Z,87.09
2022-11-03T06:11:25.935Z,87.42
2022-11-03T06:13:53.502Z,87.62
2022-11-03T06:16:37.444Z,87.42
2022-11-03T06:19:16.497Z,87.22
2022-11-03T06:21:44.831Z,87.56
2022-11-03T06:24:14.035Z,87.80
2022-11-03T06:26:44.219Z,88.00
2022-11-03T06:29:15.801Z,87.23
2022-11-03T06:31:43.880Z,87.44
2022-11-03T06:34:32.711Z,87.25
2022-11-03T06:37:10.959Z,86.98
2022-11-03T06:39:41.130Z,86.81
2022-11-03T06:42:15.114Z,86.86
2022-11-03T06:44:43.729Z,87.41
2022-11-03T06:47:22.497Z,86.88
2022-11-03T06:49:51.444Z,86.32
2022-11-03T06:52:26.594Z,85.42
2022-11-03T06:54:56.727Z,85.04
2022-11-03T06:57:25.521Z,85.17
2022-11-03T07:00:06.632Z,84.55
2022-11-03T07:02:56.555Z,84.67
2022-11-03T07:05:25.147Z,84.36
2022-11-03T07:07:55.420Z,84.68
2022-11-03T07:10:24.277Z,83.84
2022-11-03T07:12:53.256Z,83.59
2022-11-03T07:15:25.590Z,83.87
2022-11-03T07:17:53.787Z,83.28
2022-11-03T07:20:21.784Z,83.38
2022-11-03T07:22:49.983Z,82.80
2022-11-03T07:25:20.099Z,82.90
2022-11-03T07:27:48.568Z,82.43
2022-11-03T07:30:20.679Z,83.09
2022-11-03T07:32:49.248Z,82.17
2022-11-03T07:35:27.127Z,82.66
2022-11-03T07:37:55.009Z,82.09
2022-11-03T07:40:24.525Z,81.81
2022-11-03T07:42:52.155Z,81.14
2022-11-03T07:45:50.671Z,80.58
2022-11-03T07:48:21.200Z,80.53
2022-11-03T07:50:49.357Z,80.02
2022-11-03T07:53:25.849Z,81.12
2022-11-03T07:55:56.368Z,80.12
2022-11-03T07:58:26.225Z,79.95
2022-11-03T08:00:58.545Z,79.66
2022-11-03T08:03:37.707Z,80.35
2022-11-03T08:06:07.542Z,79.90
2022-11-03T08:08:37.311Z,80.68
2022-11-03T08:11:04.956Z,79.07
2022-11-03T08:13:32.382Z,78.54
2022-11-03T08:16:01.300Z,79.18
2022-11-03T08:18:28.860Z,79.19
2022-11-03T08:20:56.329Z,78.78
2022-11-03T08:23:26.273Z,78.93
2022-11-03T08:25:54.292Z,79.08
2022-11-03T08:28:21.968Z,77.88
2022-11-03T08:30:49.341Z,78.17
2022-11-03T08:33:18.336Z,78.09
2022-11-03T08:35:45.831Z,78.41
2022-11-03T08:38:13.270Z,78.73
2022-11-03T08:40:40.713Z,77.75
2022-11-03T08:43:08.133Z,78.18
2022-11-03T08:45:35.664Z,78.10
2022-11-03T08:48:03.140Z,77.53
2022-11-03T08:50:31.941Z,77.29
2022-11-03T08:52:59.317Z,78.05
2022-11-03T08:55:26.810Z,77.56
2022-11-03T08:57:54.283Z,75.51
2022-11-03T09:00:22.461Z,74.95
2022-11-03T09:02:49.881Z,75.52
2022-11-03T09:05:17.463Z,74.88
2022-11-03T09:10:36.894Z,75.77
2022-11-03T09:13:06.628Z,76.55
2022-11-03T09:15:34.686Z,76.01
2022-11-03T09:18:02.255Z,76.55
2022-11-03T09:20:30.658Z,76.62
2022-11-03T09:22:59.368Z,75.63
2022-11-03T09:25:26.805Z,76.24
2022-11-03T09:27:54.208Z,75.79
2022-11-03T09:30:21.935Z,75.98
2022-11-03T09:32:49.465Z,75.04
2022-11-03T09:35:17.384Z,74.53
2022-11-03T09:37:45.225Z,75.10
2022-11-03T09:40:15.983Z,74.83
2022-11-03T09:42:43.650Z,74.31
2022-11-03T09:45:11.572Z,74.36
2022-11-03T09:47:40.572Z,74.60
2022-11-03T09:50:11.367Z,75.13
2022-11-03T09:52:38.735Z,72.82
2022-11-03T09:55:16.646Z,73.57
2022-11-03T09:57:44.463Z,72.36
2022-11-03T10:00:18.341Z,72.99
2022-11-03T10:02:46.190Z,73.10
2022-11-03T10:07:43.577Z,72.81
2022-11-03T10:10:17.144Z,72.36
2022-11-03T10:12:44.695Z,72.57
2022-11-03T10:15:15.371Z,73.05
2022-11-03T10:17:43.071Z,73.64
2022-11-03T10:20:12.315Z,72.96
2022-11-03T10:22:41.377Z,72.70
2022-11-03T10:25:32.084Z,72.33
2022-11-03T10:28:19.540Z,73.19
2022-11-03T10:31:10.708Z,73.30
2022-11-03T10:33:40.673Z,73.80
2022-11-03T10:36:24.225Z,73.96
2022-11-03T10:38:51.624Z,74.00
2022-11-03T10:41:21.411Z,75.54
2022-11-03T10:44:01.485Z,74.18
2022-11-03T10:46:49.652Z,75.46
2022-11-03T10:49:18.338Z,75.36
2022-11-03T10:51:48.480Z,75.57
2022-11-03T10:54:17.275Z,74.85
2022-11-03T10:56:46.746Z,75.34
2022-11-03T10:59:17.928Z,74.90
2022-11-03T11:01:45.575Z,74.90
2022-11-03T11:04:16.009Z,73.98
2022-11-03T11:06:43.447Z,74.22
2022-11-03T11:09:13.572Z,75.05
2022-11-03T11:11:41.046Z,74.48
2022-11-03T11:14:23.725Z,73.08
2022-11-03T11:16:52.691Z,73.48
2022-11-03T11:19:20.272Z,74.57
2022-11-03T11:22:02.079Z,74.02
2022-11-03T11:24:58.378Z,75.14
2022-11-03T11:28:02.467Z,73.45
2022-11-03T11:31:39.431Z,73.70
2022-11-03T11:34:42.143Z,73.80
2022-11-03T11:37:33.545Z,74.62
2022-11-03T11:40:01.249Z,74.16
2022-11-03T11:42:30.500Z,73.97
2022-11-03T11:45:02.881Z,74.41
2022-11-03T11:47:44.855Z,74.17
2022-11-03T11:50:23.360Z,74.36
2022-11-03T11:52:54.332Z,75.43
2022-11-03T11:55:28.111Z,74.68
2022-11-03T11:57:55.903Z,75.23
2022-11-03T12:00:25.318Z,75.15
2022-11-03T12:02:53.850Z,74.82
2022-11-03T12:05:26.168Z,74.34
2022-11-03T12:07:53.564Z,74.49
2022-11-03T12:10:23.564Z,74.23
2022-11-03T12:12:50.978Z,75.38
2022-11-03T12:15:50.619Z,73.42
2022-11-03T12:18:39.924Z,74.63
2022-11-03T12:21:13.875Z,73.77
2022-11-03T12:23:42.655Z,73.00
2022-11-03T12:26:18.174Z,73.45
2022-11-03T12:28:45.833Z,74.82
2022-11-03T12:31:13.563Z,75.41
2022-11-03T12:33:41.311Z,75.20
2022-11-03T12:36:10.883Z,75.51
2022-11-03T12:38:38.366Z,76.39
2022-11-03T12:41:19.781Z,76.53
2022-11-03T12:43:47.285Z,76.59
2022-11-03T12:46:14.896Z,76.65
2022-11-03T12:48:43.883Z,75.89
2022-11-03T12:51:17.167Z,75.97
2022-11-03T12:53:45.076Z,76.33
2022-11-03T12:56:13.504Z,77.11
2022-11-03T12:58:41.322Z,75.81
2022-11-03T13:01:08.885Z,77.01
2022-11-03T13:03:37.405Z,76.63
2022-11-03T13:06:09.897Z,76.77
2022-11-03T13:08:39.090Z,77.53
2022-11-03T13:11:26.803Z,75.95
2022-11-03T13:13:54.248Z,76.29
2022-11-03T13:16:22.103Z,74.07
2022-11-03T13:18:49.763Z,74.50
2022-11-03T13:21:17.752Z,76.39
2022-11-03T13:23:46.491Z,75.49
2022-11-03T13:26:13.901Z,73.64
2022-11-03T13:28:42.639Z,75.41
2022-11-03T13:31:10.645Z,76.13
2022-11-03T13:33:38.152Z,76.51
2022-11-03T13:36:06.515Z,76.04
2022-11-03T13:38:34.260Z,77.18
2022-11-03T13:41:08.444Z,76.64
2022-11-03T13:43:36.379Z,76.24
2022-11-03T13:46:05.276Z,76.49
2022-11-03T13:51:21.401Z,76.47
2022-11-03T13:59:25.152Z,76.93
2022-11-03T14:07:12.901Z,77.25
2022-11-03T14:09:40.487Z,76.54
2022-11-03T14:12:27.303Z,76.06
2022-11-03T14:14:54.894Z,77.39
2022-11-03T14:17:22.322Z,77.26
2022-11-03T14:19:52.610Z,76.98
2022-11-03T14:22:20.912Z,77.02
2022-11-03T14:24:48.695Z,77.39
2022-11-03T14:27:17.591Z,77.59
2022-11-03T14:29:45.242Z,77.73
2022-11-03T14:32:48.308Z,78.32
2022-11-03T14:35:15.975Z,78.86
2022-11-03T14:37:43.467Z,78.80
2022-11-03T14:40:32.026Z,78.39
2022-11-03T14:43:00.741Z,79.26
2022-11-03T14:45:28.195Z,78.47
2022-11-03T14:47:55.616Z,78.73
2022-11-03T14:50:23.000Z,78.12
2022-11-03T14:52:50.395Z,78.33
2022-11-03T14:55:17.781Z,78.57
2022-11-03T14:57:45.230Z,78.60
2022-11-03T15:00:14.643Z,78.77
2022-11-03T15:02:42.120Z,78.46
2022-11-03T15:05:30.165Z,79.05
2022-11-03T15:07:57.576Z,78.87
2022-11-03T15:10:25.010Z,78.73
2022-11-03T15:12:52.395Z,78.83
2022-11-03T15:15:21.149Z,79.32
2022-11-03T15:17:48.517Z,78.73
2022-11-03T15:20:16.235Z,79.20
2022-11-03T15:25:33.760Z,78.82
2022-11-03T15:28:04.017Z,78.67
2022-11-03T15:30:33.147Z,78.96
2022-11-03T15:33:01.080Z,78.29
2022-11-03T15:35:28.582Z,78.07
2022-11-03T15:37:58.796Z,78.13
2022-11-03T15:40:26.748Z,77.41
2022-11-03T15:42:57.841Z,77.70
2022-11-03T15:45:27.919Z,78.08
2022-11-03T15:47:58.517Z,77.89
2022-11-03T15:50:26.667Z,77.50
2022-11-03T15:52:54.269Z,77.64
2022-11-03T15:55:23.147Z,77.67
2022-11-03T15:57:52.391Z,77.92
2022-11-03T16:00:20.194Z,78.08
2022-11-03T16:02:47.850Z,77.88
2022-11-03T16:05:20.967Z,78.03
2022-11-03T16:07:51.350Z,77.42
2022-11-03T16:10:18.756Z,77.71
2022-11-03T16:12:46.202Z,78.05
2022-11-03T16:15:13.628Z,77.71
2022-11-03T16:17:45.417Z,77.39
2022-11-03T16:20:13.292Z,77.40
2022-11-03T16:22:42.170Z,77.26
2022-11-03T16:25:13.447Z,77.57
2022-11-03T16:27:43.073Z,77.05
2022-11-03T16:30:12.477Z,77.53
2022-11-03T16:32:39.904Z,77.63
2022-11-03T16:35:08.102Z,77.79
2022-11-03T16:37:35.459Z,77.04
2022-11-03T16:40:04.924Z,77.08
2022-11-03T16:42:38.236Z,77.34
2022-11-03T16:45:07.900Z,77.96
2022-11-03T16:47:35.276Z,78.03
2022-11-03T16:50:02.653Z,78.18
2022-11-03T16:52:30.027Z,77.63
2022-11-03T16:54:58.991Z,78.23
2022-11-03T16:57:27.701Z,78.24
2022-11-03T16:59:56.100Z,77.98
2022-11-03T17:02:24.152Z,77.87
2022-11-03T17:04:51.758Z,77.36
2022-11-03T17:07:19.180Z,77.32
2022-11-03T17:09:46.611Z,77.04
2022-11-03T17:12:14.115Z,77.53
2022-11-03T17:14:42.854Z,77.44
2022-11-03T17:17:10.220Z,77.97
2022-11-03T17:19:37.623Z,78.04
2022-11-03T17:22:05.688Z,78.34
2022-11-03T17:24:34.059Z,78.00
2022-11-03T17:27:03.726Z,78.41
2022-11-03T17:29:35.799Z,77.85
2022-11-03T17:32:06.532Z,77.98
2022-11-03T17:34:34.098Z,78.06
2022-11-03T17:37:01.659Z,78.17
2022-11-03T17:39:32.164Z,77.92
2022-11-03T17:42:11.599Z,78.03
2022-11-03T17:44:38.964Z,78.04
2022-11-03T17:47:07.731Z,78.93
2022-11-03T17:49:35.103Z,79.06
2022-11-03T17:52:02.775Z,79.94
2022-11-03T17:54:31.237Z,80.50
2022-11-03T17:56:58.719Z,81.66
2022-11-03T17:59:26.323Z,82.58
2022-11-03T18:01:54.006Z,83.12
2022-11-03T18:04:22.821Z,83.70
2022-11-03T18:06:50.215Z,84.88
2022-11-03T18:09:17.618Z,84.98
2022-11-03T18:12:02.806Z,85.35
2022-11-03T18:14:30.485Z,85.54
2022-11-03T18:16:58.149Z,85.55
2022-11-03T18:19:26.952Z,86.45
2022-11-03T18:21:54.311Z,86.62
2022-11-03T18:24:22.248Z,86.44
2022-11-03T18:26:49.642Z,86.86
2022-11-03T18:29:16.978Z,87.92
2022-11-03T18:31:47.277Z,88.61
2022-11-03T18:34:17.056Z,89.02
2022-11-03T18:36:45.760Z,90.14
2022-11-03T18:39:16.955Z,91.08
2022-11-03T18:41:44.571Z,92.30
2022-11-03T18:44:15.827Z,92.81
2022-11-03T18:46:43.546Z,94.30
2022-11-03T18:49:11.104Z,94.29
2022-11-03T18:51:38.778Z,94.89
2022-11-03T18:54:09.636Z,95.04
2022-11-03T18:56:38.323Z,95.51
2022-11-03T18:59:06.062Z,97.00
2022-11-03T19:01:33.529Z,96.98
2022-11-03T19:04:04.112Z,97.48
2022-11-03T19:06:31.512Z,98.14
2022-11-03T19:09:00.287Z,97.82
2022-11-03T19:11:29.006Z,98.18
2022-11-03T19:13:56.430Z,98.50
2022-11-03T19:16:24.867Z,98.24
2022-11-03T19:18:52.670Z,98.17
2022-11-03T19:21:21.549Z,98.33
2022-11-03T19:23:50.943Z,98.56
2022-11-03T19:26:23.263Z,98.43
2022-11-03T19:28:56.163Z,98.75
2022-11-03T19:31:25.547Z,98.63
2022-11-03T19:33:54.971Z,98.76
2022-11-03T19:36:22.386Z,98.47
2022-11-03T19:38:50.049Z,98.75
2022-11-03T19:41:35.997Z,98.62
2022-11-03T19:44:09.839Z,98.47
2022-11-03T19:46:37.415Z,98.03
2022-11-03T19:49:04.894Z,98.11
2022-11-03T19:51:36.643Z,97.38
2022-11-03T19:54:05.122Z,97.10
2022-11-03T19:56:32.977Z,97.18
2022-11-03T19:59:02.530Z,96.82
2022-11-03T20:01:31.363Z,96.01
2022-11-03T20:03:58.831Z,96.31
2022-11-03T20:06:26.167Z,96.43
2022-11-03T20:08:53.701Z,96.93
2022-11-03T20:11:21.243Z,96.47
2022-11-03T20:13:48.694Z,96.35
2022-11-03T20:16:17.543Z,96.17
2022-11-03T20:18:48.232Z,96.78
2022-11-03T20:21:16.916Z,96.37
2022-11-03T20:23:44.861Z,96.25
2022-11-03T20:26:15.416Z,96.55
2022-11-03T20:28:43.072Z,96.71
2022-11-03T20:31:11.610Z,95.97
2022-11-03T20:33:39.218Z,95.84
2022-11-03T20:36:14.393Z,96.23
2022-11-03T20:38:41.773Z,96.80
2022-11-03T20:41:13.913Z,97.45
2022-11-03T20:43:43.488Z,98.16
2022-11-03T20:46:20.431Z,99.11
2022-11-03T20:48:47.847Z,100.00
2022-11-03T20:51:16.736Z,100.00
2022-11-03T20:53:44.160Z,100.00
2022-11-03T20:56:19.371Z,100.00
2022-11-03T20:58:47.340Z,100.00
2022-11-03T21:01:17.905Z,100.00
2022-11-03T21:03:58.890Z,100.00
2022-11-03T21:06:29.175Z,100.00
2022-11-03T21:08:56.605Z,100.00
2022-11-03T21:11:27.192Z,100.00
2022-11-03T21:13:56.075Z,100.00
2022-11-03T21:16:41.004Z,100.00
2022-11-03T21:19:35.887Z,100.00
2022-11-03T21:22:30.781Z,100.00
2022-11-03T21:25:00.196Z,100.00
2022-11-03T21:27:27.548Z,100.00
2022-11-03T21:29:59.392Z,100.00
2022-11-03T21:32:27.483Z,100.00
2022-11-03T21:34:54.944Z,100.00
2022-11-03T21:37:23.595Z,100.00
2022-11-03T21:39:50.935Z,100.00
2022-11-03T21:42:36.086Z,100.00
2022-11-03T21:45:03.512Z,100.00
2022-11-03T21:47:30.892Z,100.00
2022-11-03T21:49:57.350Z,100.00
2022-11-03T21:52:32.395Z,100.00
2022-11-03T21:55:00.257Z,100.00
2022-11-03T21:57:28.247Z,100.00
2022-11-03T21:59:58.520Z,100.00
2022-11-03T22:02:26.547Z,100.00
2022-11-03T22:04:55.355Z,100.00
2022-11-03T22:07:22.836Z,100.00
2022-11-03T22:09:51.527Z,100.00
2022-11-03T22:12:18.875Z,100.00
2022-11-03T22:15:04.476Z,100.00
2022-11-03T22:17:31.792Z,100.00
2022-11-03T22:20:16.963Z,100.00
2022-11-03T22:23:02.070Z,100.00
2022-11-03T22:25:48.240Z,100.00
2022-11-03T22:28:15.990Z,100.00
2022-11-03T22:31:01.019Z,100.00
2022-11-03T22:33:28.368Z,100.00
2022-11-03T22:36:17.400Z,100.00
2022-11-03T22:39:05.447Z,100.00
2022-11-03T22:41:51.722Z,100.00
2022-11-03T22:44:36.716Z,100.00
2022-11-03T22:47:06.804Z,100.00
2022-11-03T22:49:35.785Z,100.00
2022-11-03T22:52:04.044Z,100.00
2022-11-03T22:54:30.391Z,100.00
2022-11-03T22:56:59.043Z,100.00
2022-11-03T22:59:26.375Z,100.00
2022-11-03T23:01:53.903Z,100.00
2022-11-03T23:04:21.517Z,100.00
2022-11-03T23:06:48.821Z,100.00
2022-11-03T23:09:16.187Z,100.00
2022-11-03T23:11:43.521Z,100.00
2022-11-03T23:14:12.458Z,100.00
2022-11-03T23:16:41.170Z,100.00
2022-11-03T23:19:28.031Z,100.00
2022-11-03T23:21:55.443Z,100.00
2022-11-03T23:24:44.145Z,100.00
2022-11-03T23:27:13.868Z,100.00
2022-11-03T23:29:42.555Z,100.00
2022-11-03T23:32:09.923Z,100.00
2022-11-03T23:34:37.277Z,100.00
2022-11-03T23:37:04.591Z,100.00
2022-11-03T23:39:32.042Z,100.00
2022-11-03T23:41:59.440Z,100.00
2022-11-03T23:44:46.767Z,100.00
2022-11-03T23:47:32.850Z,100.00
2022-11-03T23:50:00.206Z,100.00
2022-11-03T23:52:27.546Z,100.00
2022-11-03T23:54:54.846Z,100.00
2022-11-03T23:57:39.642Z,100.00
